sensor_id;sensor_type;location;lat;lon;timestamp;P1;durP1;ratioP1;P2;durP2;ratioP2
35110;SDS011;21290;50.158;8.658;2023-09-30T00:01:45;7.68;;;3.10;;
35110;SDS011;21290;50.158;8.658;2023-09-30T00:04:12;9.85;;;3.58;;
35110;SDS011;21290;50.158;8.658;2023-09-30T00:06:39;9.10;;;3.30;;
35110;SDS011;21290;50.158;8.658;2023-09-30T00:09:06;10.88;;;3.53;;
35110;SDS011;21290;50.158;8.658;2023-09-30T00:11:33;10.05;;;3.92;;
35110;SDS011;21290;50.158;8.658;2023-09-30T00:14:00;8.25;;;3.35;;
35110;SDS011;21290;50.158;8.658;2023-09-30T00:16:27;13.05;;;3.42;;
35110;SDS011;21290;50.158;8.658;2023-09-30T00:18:54;10.90;;;3.85;;
35110;SDS011;21290;50.158;8.658;2023-09-30T00:21:21;9.13;;;3.38;;
35110;SDS011;21290;50.158;8.658;2023-09-30T00:23:48;14.05;;;4.05;;
35110;SDS011;21290;50.158;8.658;2023-09-30T00:26:15;7.72;;;3.50;;
35110;SDS011;21290;50.158;8.658;2023-09-30T00:28:42;10.63;;;4.00;;
35110;SDS011;21290;50.158;8.658;2023-09-30T00:31:09;9.25;;;3.83;;
35110;SDS011;21290;50.158;8.658;2023-09-30T00:33:37;12.15;;;4.38;;
35110;SDS011;21290;50.158;8.658;2023-09-30T00:36:10;12.20;;;4.25;;
35110;SDS011;21290;50.158;8.658;2023-09-30T00:38:38;11.95;;;4.90;;
35110;SDS011;21290;50.158;8.658;2023-09-30T00:41:04;13.20;;;4.93;;
35110;SDS011;21290;50.158;8.658;2023-09-30T00:43:32;12.10;;;4.47;;
35110;SDS011;21290;50.158;8.658;2023-09-30T00:46:02;9.30;;;4.13;;
35110;SDS011;21290;50.158;8.658;2023-09-30T00:48:36;10.40;;;4.05;;
35110;SDS011;21290;50.158;8.658;2023-09-30T00:51:03;11.80;;;4.72;;
35110;SDS011;21290;50.158;8.658;2023-09-30T00:53:30;9.27;;;4.03;;
35110;SDS011;21290;50.158;8.658;2023-09-30T00:55:57;8.75;;;4.40;;
35110;SDS011;21290;50.158;8.658;2023-09-30T00:58:25;15.98;;;4.90;;
35110;SDS011;21290;50.158;8.658;2023-09-30T01:00:55;10.48;;;4.00;;
35110;SDS011;21290;50.158;8.658;2023-09-30T01:03:22;12.80;;;4.40;;
35110;SDS011;21290;50.158;8.658;2023-09-30T01:05:49;10.75;;;4.20;;
35110;SDS011;21290;50.158;8.658;2023-09-30T01:08:16;11.65;;;4.50;;
35110;SDS011;21290;50.158;8.658;2023-09-30T01:10:44;8.40;;;4.32;;
35110;SDS011;21290;50.158;8.658;2023-09-30T01:13:11;10.05;;;4.47;;
35110;SDS011;21290;50.158;8.658;2023-09-30T01:15:38;9.27;;;4.25;;
35110;SDS011;21290;50.158;8.658;2023-09-30T01:18:05;10.60;;;4.38;;
35110;SDS011;21290;50.158;8.658;2023-09-30T01:20:32;8.18;;;4.10;;
35110;SDS011;21290;50.158;8.658;2023-09-30T01:22:59;8.38;;;4.10;;
35110;SDS011;21290;50.158;8.658;2023-09-30T01:25:26;16.60;;;4.40;;
35110;SDS011;21290;50.158;8.658;2023-09-30T01:27:53;12.30;;;4.20;;
35110;SDS011;21290;50.158;8.658;2023-09-30T01:30:20;9.77;;;4.47;;
35110;SDS011;21290;50.158;8.658;2023-09-30T01:32:49;10.45;;;4.00;;
35110;SDS011;21290;50.158;8.658;2023-09-30T01:35:16;8.07;;;3.45;;
35110;SDS011;21290;50.158;8.658;2023-09-30T01:37:42;11.07;;;3.80;;
35110;SDS011;21290;50.158;8.658;2023-09-30T01:40:09;9.60;;;3.90;;
35110;SDS011;21290;50.158;8.658;2023-09-30T01:42:37;9.43;;;3.70;;
35110;SDS011;21290;50.158;8.658;2023-09-30T01:45:05;11.05;;;4.13;;
35110;SDS011;21290;50.158;8.658;2023-09-30T01:47:32;8.05;;;3.92;;
35110;SDS011;21290;50.158;8.658;2023-09-30T01:49:59;9.02;;;4.55;;
35110;SDS011;21290;50.158;8.658;2023-09-30T01:52:26;9.98;;;4.40;;
35110;SDS011;21290;50.158;8.658;2023-09-30T01:54:53;10.32;;;3.95;;
35110;SDS011;21290;50.158;8.658;2023-09-30T01:57:20;8.80;;;3.97;;
35110;SDS011;21290;50.158;8.658;2023-09-30T01:59:47;10.60;;;3.70;;
35110;SDS011;21290;50.158;8.658;2023-09-30T02:02:13;13.25;;;4.45;;
35110;SDS011;21290;50.158;8.658;2023-09-30T02:04:41;10.48;;;4.25;;
35110;SDS011;21290;50.158;8.658;2023-09-30T02:07:09;8.48;;;4.60;;
35110;SDS011;21290;50.158;8.658;2023-09-30T02:09:36;10.50;;;4.32;;
35110;SDS011;21290;50.158;8.658;2023-09-30T02:12:03;9.70;;;3.78;;
35110;SDS011;21290;50.158;8.658;2023-09-30T02:14:31;7.63;;;3.97;;
35110;SDS011;21290;50.158;8.658;2023-09-30T02:16:58;11.05;;;4.20;;
35110;SDS011;21290;50.158;8.658;2023-09-30T02:19:24;11.23;;;4.18;;
35110;SDS011;21290;50.158;8.658;2023-09-30T02:21:53;11.13;;;4.30;;
35110;SDS011;21290;50.158;8.658;2023-09-30T02:24:20;12.85;;;4.93;;
35110;SDS011;21290;50.158;8.658;2023-09-30T02:26:48;11.38;;;4.70;;
35110;SDS011;21290;50.158;8.658;2023-09-30T02:29:14;11.38;;;4.80;;
35110;SDS011;21290;50.158;8.658;2023-09-30T02:31:41;13.10;;;5.15;;
35110;SDS011;21290;50.158;8.658;2023-09-30T02:34:08;9.77;;;4.78;;
35110;SDS011;21290;50.158;8.658;2023-09-30T02:36:34;11.32;;;4.72;;
35110;SDS011;21290;50.158;8.658;2023-09-30T02:39:05;10.38;;;4.97;;
35110;SDS011;21290;50.158;8.658;2023-09-30T02:41:33;8.73;;;4.35;;
35110;SDS011;21290;50.158;8.658;2023-09-30T02:43:59;10.73;;;4.47;;
35110;SDS011;21290;50.158;8.658;2023-09-30T02:46:26;10.45;;;4.72;;
35110;SDS011;21290;50.158;8.658;2023-09-30T02:48:54;13.07;;;5.00;;
35110;SDS011;21290;50.158;8.658;2023-09-30T02:51:21;10.23;;;4.80;;
35110;SDS011;21290;50.158;8.658;2023-09-30T02:53:48;9.88;;;4.88;;
35110;SDS011;21290;50.158;8.658;2023-09-30T02:56:14;15.77;;;5.32;;
35110;SDS011;21290;50.158;8.658;2023-09-30T02:58:41;11.27;;;5.07;;
35110;SDS011;21290;50.158;8.658;2023-09-30T03:01:07;9.45;;;4.97;;
35110;SDS011;21290;50.158;8.658;2023-09-30T03:03:36;10.65;;;5.32;;
35110;SDS011;21290;50.158;8.658;2023-09-30T03:06:03;10.15;;;5.38;;
35110;SDS011;21290;50.158;8.658;2023-09-30T03:08:29;10.95;;;5.28;;
35110;SDS011;21290;50.158;8.658;2023-09-30T03:10:56;10.07;;;5.00;;
35110;SDS011;21290;50.158;8.658;2023-09-30T03:13:22;9.45;;;4.97;;
35110;SDS011;21290;50.158;8.658;2023-09-30T03:15:49;10.68;;;5.45;;
35110;SDS011;21290;50.158;8.658;2023-09-30T03:18:16;14.82;;;5.90;;
35110;SDS011;21290;50.158;8.658;2023-09-30T03:20:43;14.30;;;5.70;;
35110;SDS011;21290;50.158;8.658;2023-09-30T03:23:10;14.80;;;6.43;;
35110;SDS011;21290;50.158;8.658;2023-09-30T03:25:40;12.88;;;5.78;;
35110;SDS011;21290;50.158;8.658;2023-09-30T03:28:08;15.60;;;6.90;;
35110;SDS011;21290;50.158;8.658;2023-09-30T03:30:35;12.82;;;6.03;;
35110;SDS011;21290;50.158;8.658;2023-09-30T03:33:01;14.27;;;6.28;;
35110;SDS011;21290;50.158;8.658;2023-09-30T03:35:31;12.70;;;5.57;;
35110;SDS011;21290;50.158;8.658;2023-09-30T03:37:58;15.30;;;5.40;;
35110;SDS011;21290;50.158;8.658;2023-09-30T03:40:25;14.07;;;7.13;;
35110;SDS011;21290;50.158;8.658;2023-09-30T03:42:54;14.25;;;5.18;;
35110;SDS011;21290;50.158;8.658;2023-09-30T03:45:21;14.77;;;6.10;;
35110;SDS011;21290;50.158;8.658;2023-09-30T03:47:48;12.20;;;6.30;;
35110;SDS011;21290;50.158;8.658;2023-09-30T03:50:15;11.23;;;5.43;;
35110;SDS011;21290;50.158;8.658;2023-09-30T03:52:43;10.07;;;5.80;;
35110;SDS011;21290;50.158;8.658;2023-09-30T03:55:13;13.27;;;5.82;;
35110;SDS011;21290;50.158;8.658;2023-09-30T03:57:42;17.30;;;6.40;;
35110;SDS011;21290;50.158;8.658;2023-09-30T04:03:06;13.45;;;6.28;;
35110;SDS011;21290;50.158;8.658;2023-09-30T04:05:33;10.18;;;5.95;;
35110;SDS011;21290;50.158;8.658;2023-09-30T04:08:03;10.65;;;6.03;;
35110;SDS011;21290;50.158;8.658;2023-09-30T04:10:31;12.18;;;6.13;;
35110;SDS011;21290;50.158;8.658;2023-09-30T04:12:57;10.90;;;6.55;;
35110;SDS011;21290;50.158;8.658;2023-09-30T04:15:24;12.77;;;5.85;;
35110;SDS011;21290;50.158;8.658;2023-09-30T04:17:51;16.95;;;6.22;;
35110;SDS011;21290;50.158;8.658;2023-09-30T04:20:19;13.02;;;6.35;;
35110;SDS011;21290;50.158;8.658;2023-09-30T04:22:50;11.70;;;6.05;;
35110;SDS011;21290;50.158;8.658;2023-09-30T04:25:17;11.77;;;5.82;;
35110;SDS011;21290;50.158;8.658;2023-09-30T04:27:44;16.02;;;6.20;;
35110;SDS011;21290;50.158;8.658;2023-09-30T04:30:14;12.18;;;7.03;;
35110;SDS011;21290;50.158;8.658;2023-09-30T04:32:41;12.40;;;6.35;;
35110;SDS011;21290;50.158;8.658;2023-09-30T04:35:08;12.75;;;6.07;;
35110;SDS011;21290;50.158;8.658;2023-09-30T04:37:35;13.30;;;6.38;;
35110;SDS011;21290;50.158;8.658;2023-09-30T04:40:03;12.57;;;6.75;;
35110;SDS011;21290;50.158;8.658;2023-09-30T04:42:34;22.67;;;8.18;;
35110;SDS011;21290;50.158;8.658;2023-09-30T04:45:03;12.68;;;6.72;;
35110;SDS011;21290;50.158;8.658;2023-09-30T04:47:33;13.15;;;6.32;;
35110;SDS011;21290;50.158;8.658;2023-09-30T04:50:00;12.02;;;6.25;;
35110;SDS011;21290;50.158;8.658;2023-09-30T04:52:30;16.27;;;5.75;;
35110;SDS011;21290;50.158;8.658;2023-09-30T04:54:57;16.05;;;6.28;;
35110;SDS011;21290;50.158;8.658;2023-09-30T04:57:26;15.57;;;6.65;;
35110;SDS011;21290;50.158;8.658;2023-09-30T04:59:53;15.00;;;6.60;;
35110;SDS011;21290;50.158;8.658;2023-09-30T05:02:19;13.60;;;6.55;;
35110;SDS011;21290;50.158;8.658;2023-09-30T05:04:46;18.15;;;6.95;;
35110;SDS011;21290;50.158;8.658;2023-09-30T05:07:13;16.35;;;7.03;;
35110;SDS011;21290;50.158;8.658;2023-09-30T05:09:39;13.27;;;5.85;;
35110;SDS011;21290;50.158;8.658;2023-09-30T05:12:07;11.50;;;6.20;;
35110;SDS011;21290;50.158;8.658;2023-09-30T05:14:35;12.65;;;5.50;;
35110;SDS011;21290;50.158;8.658;2023-09-30T05:17:02;11.68;;;5.90;;
35110;SDS011;21290;50.158;8.658;2023-09-30T05:19:31;13.50;;;6.20;;
35110;SDS011;21290;50.158;8.658;2023-09-30T05:21:58;15.60;;;6.07;;
35110;SDS011;21290;50.158;8.658;2023-09-30T05:24:27;16.98;;;6.38;;
35110;SDS011;21290;50.158;8.658;2023-09-30T05:26:54;15.70;;;6.20;;
35110;SDS011;21290;50.158;8.658;2023-09-30T05:29:21;14.38;;;5.88;;
35110;SDS011;21290;50.158;8.658;2023-09-30T05:31:48;12.93;;;5.72;;
35110;SDS011;21290;50.158;8.658;2023-09-30T05:34:15;20.38;;;6.93;;
35110;SDS011;21290;50.158;8.658;2023-09-30T05:36:41;11.85;;;5.40;;
35110;SDS011;21290;50.158;8.658;2023-09-30T05:39:08;11.90;;;5.43;;
35110;SDS011;21290;50.158;8.658;2023-09-30T05:41:37;9.13;;;5.28;;
35110;SDS011;21290;50.158;8.658;2023-09-30T05:44:04;13.48;;;5.38;;
35110;SDS011;21290;50.158;8.658;2023-09-30T05:46:31;11.90;;;5.68;;
35110;SDS011;21290;50.158;8.658;2023-09-30T05:48:58;15.20;;;6.13;;
35110;SDS011;21290;50.158;8.658;2023-09-30T05:51:25;14.88;;;6.63;;
35110;SDS011;21290;50.158;8.658;2023-09-30T05:53:53;12.45;;;6.28;;
35110;SDS011;21290;50.158;8.658;2023-09-30T05:56:20;13.75;;;5.68;;
35110;SDS011;21290;50.158;8.658;2023-09-30T05:58:47;17.25;;;6.18;;
35110;SDS011;21290;50.158;8.658;2023-09-30T06:01:13;12.35;;;5.57;;
35110;SDS011;21290;50.158;8.658;2023-09-30T06:03:45;14.38;;;6.18;;
35110;SDS011;21290;50.158;8.658;2023-09-30T06:06:13;11.77;;;5.28;;
35110;SDS011;21290;50.158;8.658;2023-09-30T06:08:42;14.15;;;5.88;;
35110;SDS011;21290;50.158;8.658;2023-09-30T06:11:18;10.65;;;5.85;;
35110;SDS011;21290;50.158;8.658;2023-09-30T06:13:45;16.98;;;7.00;;
35110;SDS011;21290;50.158;8.658;2023-09-30T06:16:12;10.85;;;5.72;;
35110;SDS011;21290;50.158;8.658;2023-09-30T06:18:39;12.75;;;5.85;;
35110;SDS011;21290;50.158;8.658;2023-09-30T06:21:06;15.43;;;6.07;;
35110;SDS011;21290;50.158;8.658;2023-09-30T06:23:33;18.88;;;6.60;;
35110;SDS011;21290;50.158;8.658;2023-09-30T06:25:59;14.25;;;6.00;;
35110;SDS011;21290;50.158;8.658;2023-09-30T06:28:28;15.93;;;6.43;;
35110;SDS011;21290;50.158;8.658;2023-09-30T06:30:57;16.40;;;5.97;;
35110;SDS011;21290;50.158;8.658;2023-09-30T06:33:24;9.63;;;4.95;;
35110;SDS011;21290;50.158;8.658;2023-09-30T06:35:51;11.52;;;5.03;;
35110;SDS011;21290;50.158;8.658;2023-09-30T06:38:18;13.90;;;6.53;;
35110;SDS011;21290;50.158;8.658;2023-09-30T06:40:45;12.20;;;5.55;;
35110;SDS011;21290;50.158;8.658;2023-09-30T06:43:13;11.27;;;5.50;;
35110;SDS011;21290;50.158;8.658;2023-09-30T06:45:43;12.00;;;5.82;;
35110;SDS011;21290;50.158;8.658;2023-09-30T06:48:11;12.43;;;6.15;;
35110;SDS011;21290;50.158;8.658;2023-09-30T06:50:39;13.50;;;6.47;;
35110;SDS011;21290;50.158;8.658;2023-09-30T06:53:09;11.50;;;5.65;;
35110;SDS011;21290;50.158;8.658;2023-09-30T06:55:37;9.10;;;5.88;;
35110;SDS011;21290;50.158;8.658;2023-09-30T06:58:04;17.45;;;6.28;;
35110;SDS011;21290;50.158;8.658;2023-09-30T07:00:33;11.75;;;5.55;;
35110;SDS011;21290;50.158;8.658;2023-09-30T07:03:03;10.80;;;5.80;;
35110;SDS011;21290;50.158;8.658;2023-09-30T07:05:30;12.65;;;5.75;;
35110;SDS011;21290;50.158;8.658;2023-09-30T07:07:57;10.52;;;5.70;;
35110;SDS011;21290;50.158;8.658;2023-09-30T07:10:24;10.93;;;5.78;;
35110;SDS011;21290;50.158;8.658;2023-09-30T07:12:51;12.68;;;5.40;;
35110;SDS011;21290;50.158;8.658;2023-09-30T07:15:18;10.20;;;5.68;;
35110;SDS011;21290;50.158;8.658;2023-09-30T07:17:45;13.43;;;5.85;;
35110;SDS011;21290;50.158;8.658;2023-09-30T07:20:13;9.97;;;5.50;;
35110;SDS011;21290;50.158;8.658;2023-09-30T07:22:40;9.27;;;4.90;;
35110;SDS011;21290;50.158;8.658;2023-09-30T07:25:10;10.85;;;5.50;;
35110;SDS011;21290;50.158;8.658;2023-09-30T07:27:37;11.50;;;4.85;;
35110;SDS011;21290;50.158;8.658;2023-09-30T07:30:04;11.60;;;5.38;;
35110;SDS011;21290;50.158;8.658;2023-09-30T07:32:32;9.65;;;5.53;;
35110;SDS011;21290;50.158;8.658;2023-09-30T07:34:59;15.23;;;5.20;;
35110;SDS011;21290;50.158;8.658;2023-09-30T07:37:26;12.13;;;6.00;;
35110;SDS011;21290;50.158;8.658;2023-09-30T07:39:52;9.30;;;4.90;;
35110;SDS011;21290;50.158;8.658;2023-09-30T07:42:19;11.23;;;5.22;;
35110;SDS011;21290;50.158;8.658;2023-09-30T07:44:48;12.07;;;5.10;;
35110;SDS011;21290;50.158;8.658;2023-09-30T07:47:15;12.32;;;5.10;;
35110;SDS011;21290;50.158;8.658;2023-09-30T07:49:41;12.73;;;4.90;;
35110;SDS011;21290;50.158;8.658;2023-09-30T07:52:08;7.35;;;4.53;;
35110;SDS011;21290;50.158;8.658;2023-09-30T07:54:37;9.88;;;4.65;;
35110;SDS011;21290;50.158;8.658;2023-09-30T07:57:03;13.05;;;4.22;;
35110;SDS011;21290;50.158;8.658;2023-09-30T07:59:30;9.88;;;4.40;;
35110;SDS011;21290;50.158;8.658;2023-09-30T08:01:59;9.85;;;4.03;;
35110;SDS011;21290;50.158;8.658;2023-09-30T08:04:27;8.68;;;3.70;;
35110;SDS011;21290;50.158;8.658;2023-09-30T08:06:55;11.02;;;4.35;;
35110;SDS011;21290;50.158;8.658;2023-09-30T08:09:21;10.88;;;3.90;;
35110;SDS011;21290;50.158;8.658;2023-09-30T08:11:50;10.18;;;3.15;;
35110;SDS011;21290;50.158;8.658;2023-09-30T08:14:20;10.05;;;3.45;;
35110;SDS011;21290;50.158;8.658;2023-09-30T08:16:47;8.70;;;3.22;;
35110;SDS011;21290;50.158;8.658;2023-09-30T08:21:42;8.43;;;3.33;;
35110;SDS011;21290;50.158;8.658;2023-09-30T08:24:09;10.70;;;3.42;;
35110;SDS011;21290;50.158;8.658;2023-09-30T08:26:35;12.18;;;3.20;;
35110;SDS011;21290;50.158;8.658;2023-09-30T08:29:02;7.72;;;3.10;;
35110;SDS011;21290;50.158;8.658;2023-09-30T08:31:29;9.57;;;3.22;;
35110;SDS011;21290;50.158;8.658;2023-09-30T08:33:56;11.35;;;3.22;;
35110;SDS011;21290;50.158;8.658;2023-09-30T08:36:23;8.02;;;3.15;;
35110;SDS011;21290;50.158;8.658;2023-09-30T08:38:51;7.97;;;3.03;;
35110;SDS011;21290;50.158;8.658;2023-09-30T08:41:24;8.88;;;3.42;;
35110;SDS011;21290;50.158;8.658;2023-09-30T08:43:59;8.20;;;3.28;;
35110;SDS011;21290;50.158;8.658;2023-09-30T08:46:31;10.98;;;3.35;;
35110;SDS011;21290;50.158;8.658;2023-09-30T08:49:00;8.93;;;3.50;;
35110;SDS011;21290;50.158;8.658;2023-09-30T08:51:29;8.95;;;3.28;;
35110;SDS011;21290;50.158;8.658;2023-09-30T08:53:57;16.00;;;3.33;;
35110;SDS011;21290;50.158;8.658;2023-09-30T08:56:26;11.30;;;3.70;;
35110;SDS011;21290;50.158;8.658;2023-09-30T08:58:59;8.82;;;3.47;;
35110;SDS011;21290;50.158;8.658;2023-09-30T09:01:27;8.68;;;3.28;;
35110;SDS011;21290;50.158;8.658;2023-09-30T09:03:55;7.18;;;3.05;;
35110;SDS011;21290;50.158;8.658;2023-09-30T09:06:22;7.67;;;3.30;;
35110;SDS011;21290;50.158;8.658;2023-09-30T09:08:50;11.52;;;3.85;;
35110;SDS011;21290;50.158;8.658;2023-09-30T09:11:17;7.68;;;3.30;;
35110;SDS011;21290;50.158;8.658;2023-09-30T09:13:45;8.98;;;3.25;;
35110;SDS011;21290;50.158;8.658;2023-09-30T09:16:16;11.30;;;3.83;;
35110;SDS011;21290;50.158;8.658;2023-09-30T09:18:45;9.13;;;3.53;;
35110;SDS011;21290;50.158;8.658;2023-09-30T09:21:19;10.85;;;3.65;;
35110;SDS011;21290;50.158;8.658;2023-09-30T09:23:49;8.48;;;3.42;;
35110;SDS011;21290;50.158;8.658;2023-09-30T09:26:24;8.65;;;3.30;;
35110;SDS011;21290;50.158;8.658;2023-09-30T09:28:58;8.98;;;3.60;;
35110;SDS011;21290;50.158;8.658;2023-09-30T09:31:30;11.10;;;3.28;;
35110;SDS011;21290;50.158;8.658;2023-09-30T09:34:02;9.82;;;3.60;;
35110;SDS011;21290;50.158;8.658;2023-09-30T09:36:39;9.52;;;3.10;;
35110;SDS011;21290;50.158;8.658;2023-09-30T09:39:08;10.13;;;3.30;;
35110;SDS011;21290;50.158;8.658;2023-09-30T09:41:51;9.52;;;3.28;;
35110;SDS011;21290;50.158;8.658;2023-09-30T09:44:19;8.23;;;2.90;;
35110;SDS011;21290;50.158;8.658;2023-09-30T09:46:51;10.30;;;4.63;;
35110;SDS011;21290;50.158;8.658;2023-09-30T09:49:18;10.50;;;4.72;;
35110;SDS011;21290;50.158;8.658;2023-09-30T09:51:46;7.15;;;3.30;;
35110;SDS011;21290;50.158;8.658;2023-09-30T09:54:15;6.03;;;3.03;;
35110;SDS011;21290;50.158;8.658;2023-09-30T09:56:45;10.35;;;3.70;;
35110;SDS011;21290;50.158;8.658;2023-09-30T09:59:12;7.45;;;3.22;;
35110;SDS011;21290;50.158;8.658;2023-09-30T10:01:40;7.10;;;3.28;;
35110;SDS011;21290;50.158;8.658;2023-09-30T10:04:08;8.25;;;3.13;;
35110;SDS011;21290;50.158;8.658;2023-09-30T10:06:37;9.60;;;3.35;;
35110;SDS011;21290;50.158;8.658;2023-09-30T10:09:10;9.05;;;3.00;;
35110;SDS011;21290;50.158;8.658;2023-09-30T10:11:38;8.38;;;2.90;;
35110;SDS011;21290;50.158;8.658;2023-09-30T10:14:08;7.60;;;3.65;;
35110;SDS011;21290;50.158;8.658;2023-09-30T10:16:55;7.22;;;2.70;;
35110;SDS011;21290;50.158;8.658;2023-09-30T10:19:22;7.80;;;2.60;;
35110;SDS011;21290;50.158;8.658;2023-09-30T10:24:44;7.82;;;3.08;;
35110;SDS011;21290;50.158;8.658;2023-09-30T10:29:54;5.97;;;2.80;;
35110;SDS011;21290;50.158;8.658;2023-09-30T10:35:17;8.57;;;2.83;;
35110;SDS011;21290;50.158;8.658;2023-09-30T10:40:57;4.65;;;2.30;;
35110;SDS011;21290;50.158;8.658;2023-09-30T10:43:33;5.82;;;2.67;;
35110;SDS011;21290;50.158;8.658;2023-09-30T10:46:29;8.15;;;2.75;;
35110;SDS011;21290;50.158;8.658;2023-09-30T10:48:53;9.73;;;3.13;;
35110;SDS011;21290;50.158;8.658;2023-09-30T10:51:20;4.93;;;2.40;;
35110;SDS011;21290;50.158;8.658;2023-09-30T10:53:51;24.17;;;4.03;;
35110;SDS011;21290;50.158;8.658;2023-09-30T10:56:23;7.70;;;2.92;;
35110;SDS011;21290;50.158;8.658;2023-09-30T10:58:51;4.70;;;2.55;;
35110;SDS011;21290;50.158;8.658;2023-09-30T11:01:22;6.55;;;2.17;;
35110;SDS011;21290;50.158;8.658;2023-09-30T11:03:50;5.57;;;2.67;;
35110;SDS011;21290;50.158;8.658;2023-09-30T11:06:30;4.45;;;2.30;;
35110;SDS011;21290;50.158;8.658;2023-09-30T11:08:59;6.57;;;2.22;;
35110;SDS011;21290;50.158;8.658;2023-09-30T11:11:36;7.13;;;2.40;;
35110;SDS011;21290;50.158;8.658;2023-09-30T11:14:04;7.72;;;2.47;;
35110;SDS011;21290;50.158;8.658;2023-09-30T11:16:46;8.20;;;2.70;;
35110;SDS011;21290;50.158;8.658;2023-09-30T11:19:14;8.73;;;2.70;;
35110;SDS011;21290;50.158;8.658;2023-09-30T11:21:42;8.75;;;2.70;;
35110;SDS011;21290;50.158;8.658;2023-09-30T11:24:13;5.38;;;2.55;;
35110;SDS011;21290;50.158;8.658;2023-09-30T11:26:40;7.55;;;2.83;;
35110;SDS011;21290;50.158;8.658;2023-09-30T11:29:11;7.18;;;2.67;;
35110;SDS011;21290;50.158;8.658;2023-09-30T11:31:40;6.57;;;2.60;;
35110;SDS011;21290;50.158;8.658;2023-09-30T11:34:07;4.38;;;2.03;;
35110;SDS011;21290;50.158;8.658;2023-09-30T11:36:35;3.50;;;2.17;;
35110;SDS011;21290;50.158;8.658;2023-09-30T11:39:04;5.68;;;2.10;;
35110;SDS011;21290;50.158;8.658;2023-09-30T11:41:38;5.55;;;2.33;;
35110;SDS011;21290;50.158;8.658;2023-09-30T11:44:07;8.68;;;2.08;;
35110;SDS011;21290;50.158;8.658;2023-09-30T11:49:33;8.13;;;2.67;;
35110;SDS011;21290;50.158;8.658;2023-09-30T11:52:06;5.68;;;2.55;;
35110;SDS011;21290;50.158;8.658;2023-09-30T11:54:43;6.00;;;2.65;;
35110;SDS011;21290;50.158;8.658;2023-09-30T11:57:12;6.07;;;2.70;;
35110;SDS011;21290;50.158;8.658;2023-09-30T11:59:43;4.05;;;2.38;;
35110;SDS011;21290;50.158;8.658;2023-09-30T12:02:14;5.65;;;2.42;;
35110;SDS011;21290;50.158;8.658;2023-09-30T12:04:43;8.23;;;2.60;;
35110;SDS011;21290;50.158;8.658;2023-09-30T12:07:11;6.65;;;2.33;;
35110;SDS011;21290;50.158;8.658;2023-09-30T12:09:39;4.53;;;2.28;;
35110;SDS011;21290;50.158;8.658;2023-09-30T12:12:07;5.32;;;2.42;;
35110;SDS011;21290;50.158;8.658;2023-09-30T12:14:36;6.30;;;2.70;;
35110;SDS011;21290;50.158;8.658;2023-09-30T12:17:03;5.40;;;2.67;;
35110;SDS011;21290;50.158;8.658;2023-09-30T12:19:30;7.05;;;2.53;;
35110;SDS011;21290;50.158;8.658;2023-09-30T12:21:56;5.60;;;2.83;;
35110;SDS011;21290;50.158;8.658;2023-09-30T12:24:24;4.65;;;2.67;;
35110;SDS011;21290;50.158;8.658;2023-09-30T12:26:53;4.90;;;2.50;;
35110;SDS011;21290;50.158;8.658;2023-09-30T12:29:21;9.30;;;2.50;;
35110;SDS011;21290;50.158;8.658;2023-09-30T12:31:51;6.55;;;2.85;;
35110;SDS011;21290;50.158;8.658;2023-09-30T12:34:20;4.65;;;2.42;;
35110;SDS011;21290;50.158;8.658;2023-09-30T12:36:50;3.90;;;2.10;;
35110;SDS011;21290;50.158;8.658;2023-09-30T12:39:16;6.28;;;2.30;;
35110;SDS011;21290;50.158;8.658;2023-09-30T12:41:50;8.35;;;2.58;;
35110;SDS011;21290;50.158;8.658;2023-09-30T12:44:16;6.65;;;2.70;;
35110;SDS011;21290;50.158;8.658;2023-09-30T12:46:43;6.78;;;2.83;;
35110;SDS011;21290;50.158;8.658;2023-09-30T12:49:10;6.72;;;2.50;;
35110;SDS011;21290;50.158;8.658;2023-09-30T12:51:37;5.25;;;2.53;;
35110;SDS011;21290;50.158;8.658;2023-09-30T12:54:03;4.88;;;2.42;;
35110;SDS011;21290;50.158;8.658;2023-09-30T12:56:30;6.22;;;2.38;;
35110;SDS011;21290;50.158;8.658;2023-09-30T12:58:58;6.85;;;1.90;;
35110;SDS011;21290;50.158;8.658;2023-09-30T13:01:25;5.38;;;2.53;;
35110;SDS011;21290;50.158;8.658;2023-09-30T13:03:52;4.20;;;1.90;;
35110;SDS011;21290;50.158;8.658;2023-09-30T13:06:19;7.10;;;2.33;;
35110;SDS011;21290;50.158;8.658;2023-09-30T13:08:46;5.90;;;1.80;;
35110;SDS011;21290;50.158;8.658;2023-09-30T13:11:13;2.67;;;1.55;;
35110;SDS011;21290;50.158;8.658;2023-09-30T13:13:40;3.85;;;2.08;;
35110;SDS011;21290;50.158;8.658;2023-09-30T13:16:09;4.78;;;1.92;;
35110;SDS011;21290;50.158;8.658;2023-09-30T13:18:38;4.40;;;2.10;;
35110;SDS011;21290;50.158;8.658;2023-09-30T13:21:05;4.90;;;2.13;;
35110;SDS011;21290;50.158;8.658;2023-09-30T13:23:33;6.57;;;2.30;;
35110;SDS011;21290;50.158;8.658;2023-09-30T13:26:00;4.00;;;1.98;;
35110;SDS011;21290;50.158;8.658;2023-09-30T13:28:27;7.68;;;1.92;;
35110;SDS011;21290;50.158;8.658;2023-09-30T13:30:54;3.25;;;1.90;;
35110;SDS011;21290;50.158;8.658;2023-09-30T13:33:21;3.33;;;1.92;;
35110;SDS011;21290;50.158;8.658;2023-09-30T13:35:48;4.55;;;1.98;;
35110;SDS011;21290;50.158;8.658;2023-09-30T13:38:15;3.72;;;1.95;;
35110;SDS011;21290;50.158;8.658;2023-09-30T13:40:42;5.13;;;2.20;;
35110;SDS011;21290;50.158;8.658;2023-09-30T13:43:10;5.75;;;1.92;;
35110;SDS011;21290;50.158;8.658;2023-09-30T13:45:37;4.05;;;2.10;;
35110;SDS011;21290;50.158;8.658;2023-09-30T13:48:04;4.53;;;2.10;;
35110;SDS011;21290;50.158;8.658;2023-09-30T13:50:32;7.07;;;2.10;;
35110;SDS011;21290;50.158;8.658;2023-09-30T13:52:59;12.48;;;2.00;;
35110;SDS011;21290;50.158;8.658;2023-09-30T13:55:27;3.53;;;1.73;;
35110;SDS011;21290;50.158;8.658;2023-09-30T13:57:54;7.05;;;2.10;;
35110;SDS011;21290;50.158;8.658;2023-09-30T14:00:21;6.55;;;2.20;;
35110;SDS011;21290;50.158;8.658;2023-09-30T14:02:47;6.05;;;2.47;;
35110;SDS011;21290;50.158;8.658;2023-09-30T14:05:15;4.40;;;2.28;;
35110;SDS011;21290;50.158;8.658;2023-09-30T14:07:43;4.82;;;2.10;;
35110;SDS011;21290;50.158;8.658;2023-09-30T14:10:09;3.15;;;1.92;;
35110;SDS011;21290;50.158;8.658;2023-09-30T14:12:37;4.70;;;2.38;;
35110;SDS011;21290;50.158;8.658;2023-09-30T14:15:06;3.60;;;2.00;;
35110;SDS011;21290;50.158;8.658;2023-09-30T14:17:33;3.50;;;1.77;;
35110;SDS011;21290;50.158;8.658;2023-09-30T14:20:01;5.88;;;2.10;;
35110;SDS011;21290;50.158;8.658;2023-09-30T14:22:31;4.70;;;2.28;;
35110;SDS011;21290;50.158;8.658;2023-09-30T14:24:58;3.40;;;2.08;;
35110;SDS011;21290;50.158;8.658;2023-09-30T14:27:24;4.82;;;2.03;;
35110;SDS011;21290;50.158;8.658;2023-09-30T14:29:52;4.43;;;2.15;;
35110;SDS011;21290;50.158;8.658;2023-09-30T14:32:19;4.13;;;2.08;;
35110;SDS011;21290;50.158;8.658;2023-09-30T14:34:46;6.82;;;2.10;;
35110;SDS011;21290;50.158;8.658;2023-09-30T14:37:12;2.65;;;1.80;;
35110;SDS011;21290;50.158;8.658;2023-09-30T14:39:39;9.52;;;1.92;;
35110;SDS011;21290;50.158;8.658;2023-09-30T14:42:06;6.32;;;2.28;;
35110;SDS011;21290;50.158;8.658;2023-09-30T14:44:33;4.22;;;2.08;;
35110;SDS011;21290;50.158;8.658;2023-09-30T14:47:00;4.55;;;2.10;;
35110;SDS011;21290;50.158;8.658;2023-09-30T14:49:26;4.15;;;1.90;;
35110;SDS011;21290;50.158;8.658;2023-09-30T14:51:53;8.93;;;4.70;;
35110;SDS011;21290;50.158;8.658;2023-09-30T14:54:22;6.85;;;3.30;;
35110;SDS011;21290;50.158;8.658;2023-09-30T14:56:49;7.30;;;2.10;;
35110;SDS011;21290;50.158;8.658;2023-09-30T14:59:16;10.25;;;6.05;;
35110;SDS011;21290;50.158;8.658;2023-09-30T15:01:42;10.73;;;6.40;;
35110;SDS011;21290;50.158;8.658;2023-09-30T15:04:09;8.18;;;4.97;;
35110;SDS011;21290;50.158;8.658;2023-09-30T15:06:36;7.03;;;2.80;;